sensor_id;sensor_type;location;lat;lon;timestamp;temperature;humidity
24176;DHT22;12324;48.146;11.502;2022-11-15T12:45:32;28.00;41.00
24176;DHT22;12324;48.146;11.502;2022-11-15T12:51:02;27.90;29.50
24176;DHT22;12324;48.146;11.502;2022-11-15T12:53:33;27.80;29.30
24176;DHT22;12324;48.146;11.502;2022-11-15T12:58:48;27.90;28.60
24176;DHT22;12324;48.146;11.502;2022-11-15T13:06:51;24.90;31.50
24176;DHT22;12324;48.146;11.502;2022-11-15T13:14:58;23.70;34.20
24176;DHT22;12324;48.146;11.502;2022-11-15T13:17:32;23.60;34.40
24176;DHT22;12324;48.146;11.502;2022-11-15T13:48:35;25.70;31.00
24176;DHT22;12324;48.146;11.502;2022-11-15T13:51:07;25.00;32.30
24176;DHT22;12324;48.146;11.502;2022-11-15T13:53:36;24.40;33.00
24176;DHT22;12324;48.146;11.502;2022-11-15T13:56:05;23.60;34.40
24176;DHT22;12324;48.146;11.502;2022-11-15T13:58:32;22.90;35.60
24176;DHT22;12324;48.146;11.502;2022-11-15T14:01:03;22.70;36.20
24176;DHT22;12324;48.146;11.502;2022-11-15T14:03:33;22.40;37.00
24176;DHT22;12324;48.146;11.502;2022-11-15T14:08:35;22.00;38.10
24176;DHT22;12324;48.146;11.502;2022-11-15T14:11:20;21.30;39.80
24176;DHT22;12324;48.146;11.502;2022-11-15T14:14:13;20.50;41.20
24176;DHT22;12324;48.146;11.502;2022-11-15T14:16:47;19.80;42.70
24176;DHT22;12324;48.146;11.502;2022-11-15T14:22:14;18.50;51.60
24176;DHT22;12324;48.146;11.502;2022-11-15T14:24:43;17.80;58.70
24176;DHT22;12324;48.146;11.502;2022-11-15T14:27:27;17.60;67.30
24176;DHT22;12324;48.146;11.502;2022-11-15T14:29:55;17.30;74.30
24176;DHT22;12324;48.146;11.502;2022-11-15T14:32:24;17.00;81.40
24176;DHT22;12324;48.146;11.502;2022-11-15T14:35:01;16.60;88.60
24176;DHT22;12324;48.146;11.502;2022-11-15T14:37:30;16.30;95.40
24176;DHT22;12324;48.146;11.502;2022-11-15T14:40:03;16.10;96.90
24176;DHT22;12324;48.146;11.502;2022-11-15T14:42:31;15.90;99.90
24176;DHT22;12324;48.146;11.502;2022-11-15T14:44:58;15.60;99.90
24176;DHT22;12324;48.146;11.502;2022-11-15T14:47:25;15.40;99.90
24176;DHT22;12324;48.146;11.502;2022-11-15T14:49:51;15.10;99.90
24176;DHT22;12324;48.146;11.502;2022-11-15T14:52:31;14.80;99.90
24176;DHT22;12324;48.146;11.502;2022-11-15T14:55:18;14.60;99.90
24176;DHT22;12324;48.146;11.502;2022-11-15T14:57:46;14.20;99.90
24176;DHT22;12324;48.146;11.502;2022-11-15T15:00:13;14.00;99.90
24176;DHT22;12324;48.146;11.502;2022-11-15T15:02:41;13.80;99.90
24176;DHT22;12324;48.146;11.502;2022-11-15T15:08:08;13.40;99.90
24176;DHT22;12324;48.146;11.502;2022-11-15T15:10:38;13.20;99.90
24176;DHT22;12324;48.146;11.502;2022-11-15T15:13:18;13.00;99.90
24176;DHT22;12324;48.146;11.502;2022-11-15T15:15:45;12.80;99.90
24176;DHT22;12324;48.146;11.502;2022-11-15T15:18:12;12.60;99.90
24176;DHT22;12324;48.146;11.502;2022-11-15T15:20:40;12.40;99.90
24176;DHT22;12324;48.146;11.502;2022-11-15T15:23:18;12.20;99.90
24176;DHT22;12324;48.146;11.502;2022-11-15T15:25:46;12.00;99.90
24176;DHT22;12324;48.146;11.502;2022-11-15T15:28:15;11.90;99.90
24176;DHT22;12324;48.146;11.502;2022-11-15T15:30:42;11.70;99.90
24176;DHT22;12324;48.146;11.502;2022-11-15T15:33:09;11.60;99.90
24176;DHT22;12324;48.146;11.502;2022-11-15T15:35:35;11.40;99.90
24176;DHT22;12324;48.146;11.502;2022-11-15T15:38:02;11.30;99.90
24176;DHT22;12324;48.146;11.502;2022-11-15T15:40:32;11.20;99.90
24176;DHT22;12324;48.146;11.502;2022-11-15T15:42:59;11.10;99.90
24176;DHT22;12324;48.146;11.502;2022-11-15T15:45:26;10.90;99.90
24176;DHT22;12324;48.146;11.502;2022-11-15T15:47:54;10.80;99.90
24176;DHT22;12324;48.146;11.502;2022-11-15T15:52:56;10.70;99.90
24176;DHT22;12324;48.146;11.502;2022-11-15T15:55:24;10.70;99.90
24176;DHT22;12324;48.146;11.502;2022-11-15T15:57:51;10.80;99.90
24176;DHT22;12324;48.146;11.502;2022-11-15T16:00:18;10.70;99.90
24176;DHT22;12324;48.146;11.502;2022-11-15T16:02:45;10.50;99.90
24176;DHT22;12324;48.146;11.502;2022-11-15T16:05:12;10.50;99.90
24176;DHT22;12324;48.146;11.502;2022-11-15T16:07:39;10.40;99.90
24176;DHT22;12324;48.146;11.502;2022-11-15T16:10:26;10.50;99.90
24176;DHT22;12324;48.146;11.502;2022-11-15T16:12:54;10.50;99.90
24176;DHT22;12324;48.146;11.502;2022-11-15T16:15:23;10.50;99.90
24176;DHT22;12324;48.146;11.502;2022-11-15T16:17:55;10.40;99.90
24176;DHT22;12324;48.146;11.502;2022-11-15T16:22:56;10.20;99.90
24176;DHT22;12324;48.146;11.502;2022-11-15T16:25:23;10.20;99.90
24176;DHT22;12324;48.146;11.502;2022-11-15T16:27:50;10.10;99.90
24176;DHT22;12324;48.146;11.502;2022-11-15T16:30:18;10.00;99.90
24176;DHT22;12324;48.146;11.502;2022-11-15T16:32:46;10.00;99.90
24176;DHT22;12324;48.146;11.502;2022-11-15T16:35:14;9.90;99.90
24176;DHT22;12324;48.146;11.502;2022-11-15T16:37:42;9.90;99.90
24176;DHT22;12324;48.146;11.502;2022-11-15T16:42:50;9.90;99.90
24176;DHT22;12324;48.146;11.502;2022-11-15T16:45:16;9.90;99.90
24176;DHT22;12324;48.146;11.502;2022-11-15T16:47:43;9.90;99.90
24176;DHT22;12324;48.146;11.502;2022-11-15T16:50:21;9.90;99.90
24176;DHT22;12324;48.146;11.502;2022-11-15T16:52:51;9.90;99.90
24176;DHT22;12324;48.146;11.502;2022-11-15T16:55:19;9.90;99.90
24176;DHT22;12324;48.146;11.502;2022-11-15T16:57:46;9.90;99.90
24176;DHT22;12324;48.146;11.502;2022-11-15T17:00:13;10.00;99.90
24176;DHT22;12324;48.146;11.502;2022-11-15T17:02:43;10.00;99.90
24176;DHT22;12324;48.146;11.502;2022-11-15T17:05:11;10.00;99.90
24176;DHT22;12324;48.146;11.502;2022-11-15T17:07:50;9.90;99.90
24176;DHT22;12324;48.146;11.502;2022-11-15T17:10:21;9.70;99.90
24176;DHT22;12324;48.146;11.502;2022-11-15T17:12:49;9.70;99.90
24176;DHT22;12324;48.146;11.502;2022-11-15T17:15:16;9.70;99.90
24176;DHT22;12324;48.146;11.502;2022-11-15T17:17:44;9.80;99.90
24176;DHT22;12324;48.146;11.502;2022-11-15T17:20:16;9.70;99.90
24176;DHT22;12324;48.146;11.502;2022-11-15T17:22:43;9.60;99.90
24176;DHT22;12324;48.146;11.502;2022-11-15T17:25:10;9.60;99.90
24176;DHT22;12324;48.146;11.502;2022-11-15T17:27:37;9.50;99.90
24176;DHT22;12324;48.146;11.502;2022-11-15T17:30:04;9.40;99.90
24176;DHT22;12324;48.146;11.502;2022-11-15T17:32:34;9.40;99.90
24176;DHT22;12324;48.146;11.502;2022-11-15T17:35:00;9.50;99.90
24176;DHT22;12324;48.146;11.502;2022-11-15T17:37:27;9.50;99.90
24176;DHT22;12324;48.146;11.502;2022-11-15T17:39:53;9.50;99.90
24176;DHT22;12324;48.146;11.502;2022-11-15T17:42:20;9.40;99.90
24176;DHT22;12324;48.146;11.502;2022-11-15T17:44:47;9.50;99.90
24176;DHT22;12324;48.146;11.502;2022-11-15T17:47:13;9.50;99.90
24176;DHT22;12324;48.146;11.502;2022-11-15T17:49:40;9.30;99.90
24176;DHT22;12324;48.146;11.502;2022-11-15T17:52:07;9.20;99.90
24176;DHT22;12324;48.146;11.502;2022-11-15T17:54:34;9.20;99.90
24176;DHT22;12324;48.146;11.502;2022-11-15T17:57:00;9.20;99.90
24176;DHT22;12324;48.146;11.502;2022-11-15T17:59:27;9.10;99.90
24176;DHT22;12324;48.146;11.502;2022-11-15T18:01:53;9.00;99.90
24176;DHT22;12324;48.146;11.502;2022-11-15T18:04:20;8.90;99.90
24176;DHT22;12324;48.146;11.502;2022-11-15T18:06:48;8.90;99.90
24176;DHT22;12324;48.146;11.502;2022-11-15T18:09:15;8.90;99.90
24176;DHT22;12324;48.146;11.502;2022-11-15T18:11:42;8.80;99.90
24176;DHT22;12324;48.146;11.502;2022-11-15T18:14:13;8.80;99.90
24176;DHT22;12324;48.146;11.502;2022-11-15T18:16:40;8.80;99.90
24176;DHT22;12324;48.146;11.502;2022-11-15T18:19:08;8.80;99.90
24176;DHT22;12324;48.146;11.502;2022-11-15T18:21:40;9.00;99.90
24176;DHT22;12324;48.146;11.502;2022-11-15T18:24:32;8.90;99.90
24176;DHT22;12324;48.146;11.502;2022-11-15T18:27:02;8.90;99.90
24176;DHT22;12324;48.146;11.502;2022-11-15T18:29:29;8.90;99.90
24176;DHT22;12324;48.146;11.502;2022-11-15T18:31:56;8.80;99.90
24176;DHT22;12324;48.146;11.502;2022-11-15T18:34:26;8.90;99.90
24176;DHT22;12324;48.146;11.502;2022-11-15T18:37:01;8.90;99.90
24176;DHT22;12324;48.146;11.502;2022-11-15T18:39:29;8.90;99.90
24176;DHT22;12324;48.146;11.502;2022-11-15T18:41:55;8.90;99.90
24176;DHT22;12324;48.146;11.502;2022-11-15T18:44:22;9.00;99.90
24176;DHT22;12324;48.146;11.502;2022-11-15T18:46:49;9.10;99.90
24176;DHT22;12324;48.146;11.502;2022-11-15T18:49:16;9.00;99.90
24176;DHT22;12324;48.146;11.502;2022-11-15T18:51:45;9.00;99.90
24176;DHT22;12324;48.146;11.502;2022-11-15T18:54:13;8.90;99.90
24176;DHT22;12324;48.146;11.502;2022-11-15T18:56:41;8.90;99.90
24176;DHT22;12324;48.146;11.502;2022-11-15T18:59:09;8.90;99.90
24176;DHT22;12324;48.146;11.502;2022-11-15T19:01:38;8.90;99.90
24176;DHT22;12324;48.146;11.502;2022-11-15T19:04:08;8.90;99.90
24176;DHT22;12324;48.146;11.502;2022-11-15T19:06:40;8.90;99.90
24176;DHT22;12324;48.146;11.502;2022-11-15T19:09:08;8.80;99.90
24176;DHT22;12324;48.146;11.502;2022-11-15T19:11:37;8.80;99.90
24176;DHT22;12324;48.146;11.502;2022-11-15T19:14:07;8.80;99.90
24176;DHT22;12324;48.146;11.502;2022-11-15T19:16:40;8.80;99.90
24176;DHT22;12324;48.146;11.502;2022-11-15T19:19:15;8.80;99.90
24176;DHT22;12324;48.146;11.502;2022-11-15T19:21:43;8.80;99.90
24176;DHT22;12324;48.146;11.502;2022-11-15T19:24:10;8.80;99.90
24176;DHT22;12324;48.146;11.502;2022-11-15T19:26:36;8.70;99.90
24176;DHT22;12324;48.146;11.502;2022-11-15T19:29:05;8.80;99.90
24176;DHT22;12324;48.146;11.502;2022-11-15T19:31:32;8.80;99.90
24176;DHT22;12324;48.146;11.502;2022-11-15T19:34:01;8.80;99.90
24176;DHT22;12324;48.146;11.502;2022-11-15T19:36:32;8.80;99.90
24176;DHT22;12324;48.146;11.502;2022-11-15T19:39:00;8.70;99.90
24176;DHT22;12324;48.146;11.502;2022-11-15T19:41:30;8.70;99.90
24176;DHT22;12324;48.146;11.502;2022-11-15T19:43:57;8.70;99.90
24176;DHT22;12324;48.146;11.502;2022-11-15T19:46:25;8.70;99.90
24176;DHT22;12324;48.146;11.502;2022-11-15T19:48:52;8.80;99.90
24176;DHT22;12324;48.146;11.502;2022-11-15T19:51:21;8.70;99.90
24176;DHT22;12324;48.146;11.502;2022-11-15T19:53:52;8.70;99.90
24176;DHT22;12324;48.146;11.502;2022-11-15T19:56:20;8.80;99.90
24176;DHT22;12324;48.146;11.502;2022-11-15T19:58:54;8.80;99.90
24176;DHT22;12324;48.146;11.502;2022-11-15T20:01:23;8.70;99.90
24176;DHT22;12324;48.146;11.502;2022-11-15T20:03:52;8.70;99.90
24176;DHT22;12324;48.146;11.502;2022-11-15T20:06:28;8.70;99.90
24176;DHT22;12324;48.146;11.502;2022-11-15T20:08:56;8.70;99.90
24176;DHT22;12324;48.146;11.502;2022-11-15T20:11:23;8.80;99.90
24176;DHT22;12324;48.146;11.502;2022-11-15T20:13:51;8.70;99.90
24176;DHT22;12324;48.146;11.502;2022-11-15T20:16:21;8.70;99.90
24176;DHT22;12324;48.146;11.502;2022-11-15T20:18:49;8.60;99.90
24176;DHT22;12324;48.146;11.502;2022-11-15T20:21:16;8.60;99.90
24176;DHT22;12324;48.146;11.502;2022-11-15T20:23:43;8.60;99.90
24176;DHT22;12324;48.146;11.502;2022-11-15T20:26:10;8.50;99.90
24176;DHT22;12324;48.146;11.502;2022-11-15T20:28:38;8.50;99.90
24176;DHT22;12324;48.146;11.502;2022-11-15T20:31:06;8.60;99.90
24176;DHT22;12324;48.146;11.502;2022-11-15T20:33:33;8.50;99.90
24176;DHT22;12324;48.146;11.502;2022-11-15T20:36:08;8.50;99.90
24176;DHT22;12324;48.146;11.502;2022-11-15T20:38:35;8.50;99.90
24176;DHT22;12324;48.146;11.502;2022-11-15T20:41:02;8.60;99.90
24176;DHT22;12324;48.146;11.502;2022-11-15T20:43:29;8.50;99.90
24176;DHT22;12324;48.146;11.502;2022-11-15T20:45:56;8.50;99.90
24176;DHT22;12324;48.146;11.502;2022-11-15T20:48:22;8.50;99.90
24176;DHT22;12324;48.146;11.502;2022-11-15T20:50:49;8.50;99.90
24176;DHT22;12324;48.146;11.502;2022-11-15T20:53:17;8.50;99.90
24176;DHT22;12324;48.146;11.502;2022-11-15T20:55:47;8.50;99.90
24176;DHT22;12324;48.146;11.502;2022-11-15T20:58:15;8.60;99.90
24176;DHT22;12324;48.146;11.502;2022-11-15T21:00:43;8.50;99.90
24176;DHT22;12324;48.146;11.502;2022-11-15T21:03:12;8.50;99.90
24176;DHT22;12324;48.146;11.502;2022-11-15T21:05:41;8.50;99.90
24176;DHT22;12324;48.146;11.502;2022-11-15T21:08:09;8.50;99.90
24176;DHT22;12324;48.146;11.502;2022-11-15T21:10:36;8.40;99.90
24176;DHT22;12324;48.146;11.502;2022-11-15T21:13:21;8.40;99.90
24176;DHT22;12324;48.146;11.502;2022-11-15T21:15:48;8.40;99.90
24176;DHT22;12324;48.146;11.502;2022-11-15T21:18:15;8.40;99.90
24176;DHT22;12324;48.146;11.502;2022-11-15T21:20:42;8.40;99.90
24176;DHT22;12324;48.146;11.502;2022-11-15T21:23:09;8.40;99.90
24176;DHT22;12324;48.146;11.502;2022-11-15T21:25:36;8.40;99.90
24176;DHT22;12324;48.146;11.502;2022-11-15T21:28:03;8.40;99.90
24176;DHT22;12324;48.146;11.502;2022-11-15T21:30:30;8.40;99.90
24176;DHT22;12324;48.146;11.502;2022-11-15T21:32:57;8.30;99.90
24176;DHT22;12324;48.146;11.502;2022-11-15T21:35:23;8.40;99.90
24176;DHT22;12324;48.146;11.502;2022-11-15T21:37:50;8.40;99.90
24176;DHT22;12324;48.146;11.502;2022-11-15T21:40:22;8.40;99.90
24176;DHT22;12324;48.146;11.502;2022-11-15T21:42:49;8.50;99.90
24176;DHT22;12324;48.146;11.502;2022-11-15T21:45:16;8.50;99.90
24176;DHT22;12324;48.146;11.502;2022-11-15T21:47:42;8.50;99.90
24176;DHT22;12324;48.146;11.502;2022-11-15T21:50:12;8.50;99.90
24176;DHT22;12324;48.146;11.502;2022-11-15T21:52:39;8.50;99.90
24176;DHT22;12324;48.146;11.502;2022-11-15T21:55:06;8.50;99.90
24176;DHT22;12324;48.146;11.502;2022-11-15T21:57:33;8.50;99.90
24176;DHT22;12324;48.146;11.502;2022-11-15T21:59:59;8.40;99.90
24176;DHT22;12324;48.146;11.502;2022-11-15T22:02:45;8.40;99.90
24176;DHT22;12324;48.146;11.502;2022-11-15T22:05:11;8.30;99.90
24176;DHT22;12324;48.146;11.502;2022-11-15T22:07:38;8.30;99.90
24176;DHT22;12324;48.146;11.502;2022-11-15T22:10:05;8.30;99.90
24176;DHT22;12324;48.146;11.502;2022-11-15T22:12:32;8.20;99.90
24176;DHT22;12324;48.146;11.502;2022-11-15T22:14:58;8.20;99.90
24176;DHT22;12324;48.146;11.502;2022-11-15T22:17:25;8.10;99.90
24176;DHT22;12324;48.146;11.502;2022-11-15T22:20:12;8.20;99.90
24176;DHT22;12324;48.146;11.502;2022-11-15T22:22:59;8.10;99.90
24176;DHT22;12324;48.146;11.502;2022-11-15T22:25:27;8.10;99.90
24176;DHT22;12324;48.146;11.502;2022-11-15T22:27:54;8.10;99.90
24176;DHT22;12324;48.146;11.502;2022-11-15T22:30:21;8.10;99.90
24176;DHT22;12324;48.146;11.502;2022-11-15T22:32:48;8.10;99.90
24176;DHT22;12324;48.146;11.502;2022-11-15T22:35:15;8.10;99.90
24176;DHT22;12324;48.146;11.502;2022-11-15T22:37:42;8.10;99.90
24176;DHT22;12324;48.146;11.502;2022-11-15T22:40:09;8.00;99.90
24176;DHT22;12324;48.146;11.502;2022-11-15T22:42:36;8.00;99.90
24176;DHT22;12324;48.146;11.502;2022-11-15T22:45:03;7.90;99.90
24176;DHT22;12324;48.146;11.502;2022-11-15T22:47:29;7.90;99.90
24176;DHT22;12324;48.146;11.502;2022-11-15T22:49:56;7.90;99.90
24176;DHT22;12324;48.146;11.502;2022-11-15T22:52:23;7.80;99.90
24176;DHT22;12324;48.146;11.502;2022-11-15T22:54:50;7.80;99.90
24176;DHT22;12324;48.146;11.502;2022-11-15T22:57:16;7.80;99.90
24176;DHT22;12324;48.146;11.502;2022-11-15T22:59:43;7.80;99.90
24176;DHT22;12324;48.146;11.502;2022-11-15T23:02:10;7.70;99.90
24176;DHT22;12324;48.146;11.502;2022-11-15T23:04:37;7.70;99.90
24176;DHT22;12324;48.146;11.502;2022-11-15T23:07:03;7.70;99.90
24176;DHT22;12324;48.146;11.502;2022-11-15T23:09:30;7.60;99.90
24176;DHT22;12324;48.146;11.502;2022-11-15T23:11:57;7.50;99.90
24176;DHT22;12324;48.146;11.502;2022-11-15T23:14:42;7.50;99.90
24176;DHT22;12324;48.146;11.502;2022-11-15T23:17:09;7.40;99.90
24176;DHT22;12324;48.146;11.502;2022-11-15T23:19:35;7.40;99.90
24176;DHT22;12324;48.146;11.502;2022-11-15T23:22:02;7.30;99.90
24176;DHT22;12324;48.146;11.502;2022-11-15T23:24:47;7.30;99.90
24176;DHT22;12324;48.146;11.502;2022-11-15T23:27:14;7.30;99.90
24176;DHT22;12324;48.146;11.502;2022-11-15T23:29:45;7.30;99.90
24176;DHT22;12324;48.146;11.502;2022-11-15T23:32:31;7.30;99.90
24176;DHT22;12324;48.146;11.502;2022-11-15T23:35:17;7.20;99.90
24176;DHT22;12324;48.146;11.502;2022-11-15T23:37:43;7.20;99.90
24176;DHT22;12324;48.146;11.502;2022-11-15T23:40:11;7.20;99.90
24176;DHT22;12324;48.146;11.502;2022-11-15T23:42:38;7.20;99.90
24176;DHT22;12324;48.146;11.502;2022-11-15T23:45:05;7.20;99.90
24176;DHT22;12324;48.146;11.502;2022-11-15T23:47:32;7.20;99.90
24176;DHT22;12324;48.146;11.502;2022-11-15T23:49:59;7.20;99.90
24176;DHT22;12324;48.146;11.502;2022-11-15T23:52:26;7.20;99.90
24176;DHT22;12324;48.146;11.502;2022-11-15T23:54:52;7.20;99.90
24176;DHT22;12324;48.146;11.502;2022-11-15T23:57:19;7.20;99.90
24176;DHT22;12324;48.146;11.502;2022-11-15T23:59:46;7.20;99.90
